sensor_id;sensor_type;location;lat;lon;timestamp;P1;durP1;ratioP1;P2;durP2;ratioP2
51286;SDS011;37364;46.974;18.916;2023-10-09T00:02:10;2.25;;;1.80;;
51286;SDS011;37364;46.974;18.916;2023-10-09T00:04:41;2.53;;;1.73;;
51286;SDS011;37364;46.974;18.916;2023-10-09T00:07:12;3.85;;;2.05;;
51286;SDS011;37364;46.974;18.916;2023-10-09T00:09:43;5.40;;;2.42;;
51286;SDS011;37364;46.974;18.916;2023-10-09T00:12:20;1.77;;;1.67;;
51286;SDS011;37364;46.974;18.916;2023-10-09T00:14:52;4.15;;;1.90;;
51286;SDS011;37364;46.974;18.916;2023-10-09T00:17:36;3.60;;;1.80;;
51286;SDS011;37364;46.974;18.916;2023-10-09T00:20:09;8.90;;;2.30;;
51286;SDS011;37364;46.974;18.916;2023-10-09T00:22:47;1.40;;;1.27;;
51286;SDS011;37364;46.974;18.916;2023-10-09T00:25:18;1.88;;;1.75;;
51286;SDS011;37364;46.974;18.916;2023-10-09T00:27:59;2.60;;;1.70;;
51286;SDS011;37364;46.974;18.916;2023-10-09T00:30:32;8.27;;;2.17;;
51286;SDS011;37364;46.974;18.916;2023-10-09T00:33:03;1.83;;;1.70;;
51286;SDS011;37364;46.974;18.916;2023-10-09T00:35:36;5.88;;;1.63;;
51286;SDS011;37364;46.974;18.916;2023-10-09T00:38:21;3.28;;;2.08;;
51286;SDS011;37364;46.974;18.916;2023-10-09T00:41:00;2.47;;;1.73;;
51286;SDS011;37364;46.974;18.916;2023-10-09T00:43:40;1.58;;;1.48;;
51286;SDS011;37364;46.974;18.916;2023-10-09T00:46:11;1.05;;;1.02;;
51286;SDS011;37364;46.974;18.916;2023-10-09T00:48:52;2.55;;;1.65;;
51286;SDS011;37364;46.974;18.916;2023-10-09T00:51:28;2.28;;;1.70;;
51286;SDS011;37364;46.974;18.916;2023-10-09T00:54:05;1.30;;;1.20;;
51286;SDS011;37364;46.974;18.916;2023-10-09T00:56:42;2.05;;;1.50;;
51286;SDS011;37364;46.974;18.916;2023-10-09T00:59:27;1.88;;;1.40;;
51286;SDS011;37364;46.974;18.916;2023-10-09T01:01:58;2.72;;;1.60;;
51286;SDS011;37364;46.974;18.916;2023-10-09T01:07:04;3.33;;;1.58;;
51286;SDS011;37364;46.974;18.916;2023-10-09T01:09:43;2.17;;;1.95;;
51286;SDS011;37364;46.974;18.916;2023-10-09T01:14:50;2.28;;;1.92;;
51286;SDS011;37364;46.974;18.916;2023-10-09T01:17:25;4.00;;;1.63;;
51286;SDS011;37364;46.974;18.916;2023-10-09T01:20:03;3.28;;;1.77;;
51286;SDS011;37364;46.974;18.916;2023-10-09T01:22:43;1.60;;;1.50;;
51286;SDS011;37364;46.974;18.916;2023-10-09T01:25:20;5.28;;;1.45;;
51286;SDS011;37364;46.974;18.916;2023-10-09T01:27:50;1.17;;;1.00;;
51286;SDS011;37364;46.974;18.916;2023-10-09T01:30:21;3.63;;;2.13;;
51286;SDS011;37364;46.974;18.916;2023-10-09T01:32:51;1.65;;;1.48;;
51286;SDS011;37364;46.974;18.916;2023-10-09T01:35:24;2.72;;;2.08;;
51286;SDS011;37364;46.974;18.916;2023-10-09T01:37:59;3.55;;;2.28;;
51286;SDS011;37364;46.974;18.916;2023-10-09T01:40:39;1.77;;;1.65;;
51286;SDS011;37364;46.974;18.916;2023-10-09T01:43:11;1.77;;;1.50;;
51286;SDS011;37364;46.974;18.916;2023-10-09T01:45:45;5.38;;;2.25;;
51286;SDS011;37364;46.974;18.916;2023-10-09T01:48:19;3.38;;;1.80;;
51286;SDS011;37364;46.974;18.916;2023-10-09T01:50:51;7.88;;;1.88;;
51286;SDS011;37364;46.974;18.916;2023-10-09T01:53:21;5.10;;;1.58;;
51286;SDS011;37364;46.974;18.916;2023-10-09T01:56:01;2.28;;;1.63;;
51286;SDS011;37364;46.974;18.916;2023-10-09T01:58:42;2.22;;;1.70;;
51286;SDS011;37364;46.974;18.916;2023-10-09T02:01:14;3.27;;;1.70;;
51286;SDS011;37364;46.974;18.916;2023-10-09T02:03:45;2.58;;;1.75;;
51286;SDS011;37364;46.974;18.916;2023-10-09T02:06:19;2.08;;;1.30;;
51286;SDS011;37364;46.974;18.916;2023-10-09T02:08:59;3.17;;;1.58;;
51286;SDS011;37364;46.974;18.916;2023-10-09T02:11:36;2.42;;;1.92;;
51286;SDS011;37364;46.974;18.916;2023-10-09T02:14:08;2.15;;;1.95;;
51286;SDS011;37364;46.974;18.916;2023-10-09T02:16:46;1.80;;;1.67;;
51286;SDS011;37364;46.974;18.916;2023-10-09T02:19:31;2.13;;;1.38;;
51286;SDS011;37364;46.974;18.916;2023-10-09T02:22:07;2.00;;;1.20;;
51286;SDS011;37364;46.974;18.916;2023-10-09T02:24:42;6.40;;;2.10;;
51286;SDS011;37364;46.974;18.916;2023-10-09T02:27:34;3.38;;;1.67;;
51286;SDS011;37364;46.974;18.916;2023-10-09T02:30:20;3.58;;;2.00;;
51286;SDS011;37364;46.974;18.916;2023-10-09T02:33:02;2.65;;;1.45;;
51286;SDS011;37364;46.974;18.916;2023-10-09T02:35:36;1.38;;;1.27;;
51286;SDS011;37364;46.974;18.916;2023-10-09T02:38:09;2.00;;;1.73;;
51286;SDS011;37364;46.974;18.916;2023-10-09T02:40:41;3.03;;;1.63;;
51286;SDS011;37364;46.974;18.916;2023-10-09T02:43:37;1.50;;;1.30;;
51286;SDS011;37364;46.974;18.916;2023-10-09T02:46:11;4.72;;;2.40;;
51286;SDS011;37364;46.974;18.916;2023-10-09T02:48:47;2.38;;;1.40;;
51286;SDS011;37364;46.974;18.916;2023-10-09T02:51:20;2.47;;;1.63;;
51286;SDS011;37364;46.974;18.916;2023-10-09T02:54:00;2.58;;;1.50;;
51286;SDS011;37364;46.974;18.916;2023-10-09T02:56:46;2.72;;;1.38;;
51286;SDS011;37364;46.974;18.916;2023-10-09T02:59:25;2.10;;;1.85;;
51286;SDS011;37364;46.974;18.916;2023-10-09T03:01:57;4.50;;;1.20;;
51286;SDS011;37364;46.974;18.916;2023-10-09T03:04:27;0.80;;;0.80;;
51286;SDS011;37364;46.974;18.916;2023-10-09T03:06:58;3.05;;;1.60;;
51286;SDS011;37364;46.974;18.916;2023-10-09T03:09:30;4.00;;;1.85;;
51286;SDS011;37364;46.974;18.916;2023-10-09T03:12:02;5.38;;;1.50;;
51286;SDS011;37364;46.974;18.916;2023-10-09T03:14:39;2.05;;;1.35;;
51286;SDS011;37364;46.974;18.916;2023-10-09T03:17:11;3.15;;;2.13;;
51286;SDS011;37364;46.974;18.916;2023-10-09T03:19:42;4.03;;;2.20;;
51286;SDS011;37364;46.974;18.916;2023-10-09T03:22:12;6.05;;;3.17;;
51286;SDS011;37364;46.974;18.916;2023-10-09T03:24:43;9.52;;;3.80;;
51286;SDS011;37364;46.974;18.916;2023-10-09T03:27:18;7.25;;;4.63;;
51286;SDS011;37364;46.974;18.916;2023-10-09T03:29:51;6.40;;;4.20;;
51286;SDS011;37364;46.974;18.916;2023-10-09T03:32:22;5.88;;;3.35;;
51286;SDS011;37364;46.974;18.916;2023-10-09T03:34:53;5.90;;;3.42;;
51286;SDS011;37364;46.974;18.916;2023-10-09T03:37:26;2.47;;;1.92;;
51286;SDS011;37364;46.974;18.916;2023-10-09T03:40:02;2.90;;;1.67;;
51286;SDS011;37364;46.974;18.916;2023-10-09T03:42:34;4.25;;;2.13;;
51286;SDS011;37364;46.974;18.916;2023-10-09T03:45:11;9.27;;;2.03;;
51286;SDS011;37364;46.974;18.916;2023-10-09T03:47:55;3.20;;;1.52;;
51286;SDS011;37364;46.974;18.916;2023-10-09T03:50:29;4.63;;;1.98;;
51286;SDS011;37364;46.974;18.916;2023-10-09T03:53:05;2.97;;;2.05;;
51286;SDS011;37364;46.974;18.916;2023-10-09T03:55:39;6.53;;;1.95;;
51286;SDS011;37364;46.974;18.916;2023-10-09T03:58:10;3.45;;;1.65;;
51286;SDS011;37364;46.974;18.916;2023-10-09T04:00:45;3.40;;;1.70;;
51286;SDS011;37364;46.974;18.916;2023-10-09T04:03:16;2.60;;;1.80;;
51286;SDS011;37364;46.974;18.916;2023-10-09T04:05:47;2.33;;;1.50;;
51286;SDS011;37364;46.974;18.916;2023-10-09T04:08:20;2.10;;;1.80;;
51286;SDS011;37364;46.974;18.916;2023-10-09T04:10:57;10.55;;;1.50;;
51286;SDS011;37364;46.974;18.916;2023-10-09T04:13:31;2.75;;;1.55;;
51286;SDS011;37364;46.974;18.916;2023-10-09T04:16:09;2.45;;;1.80;;
51286;SDS011;37364;46.974;18.916;2023-10-09T04:19:00;1.80;;;1.35;;
51286;SDS011;37364;46.974;18.916;2023-10-09T04:21:38;2.25;;;1.33;;
51286;SDS011;37364;46.974;18.916;2023-10-09T04:24:08;6.80;;;2.03;;
51286;SDS011;37364;46.974;18.916;2023-10-09T04:26:50;3.75;;;1.80;;
51286;SDS011;37364;46.974;18.916;2023-10-09T04:29:29;1.48;;;1.38;;
51286;SDS011;37364;46.974;18.916;2023-10-09T04:32:13;5.47;;;1.70;;
51286;SDS011;37364;46.974;18.916;2023-10-09T04:34:48;2.15;;;1.83;;
51286;SDS011;37364;46.974;18.916;2023-10-09T04:37:38;2.08;;;1.50;;
51286;SDS011;37364;46.974;18.916;2023-10-09T04:40:11;1.70;;;1.57;;
51286;SDS011;37364;46.974;18.916;2023-10-09T04:43:01;1.55;;;1.35;;
51286;SDS011;37364;46.974;18.916;2023-10-09T04:45:36;6.25;;;1.55;;
51286;SDS011;37364;46.974;18.916;2023-10-09T04:48:33;3.47;;;1.88;;
51286;SDS011;37364;46.974;18.916;2023-10-09T04:51:05;1.65;;;1.20;;
51286;SDS011;37364;46.974;18.916;2023-10-09T04:53:49;1.33;;;1.20;;
51286;SDS011;37364;46.974;18.916;2023-10-09T04:56:30;2.13;;;1.60;;
51286;SDS011;37364;46.974;18.916;2023-10-09T04:59:00;4.28;;;1.67;;
51286;SDS011;37364;46.974;18.916;2023-10-09T05:01:35;2.78;;;1.70;;
51286;SDS011;37364;46.974;18.916;2023-10-09T05:04:30;4.05;;;1.92;;
51286;SDS011;37364;46.974;18.916;2023-10-09T05:07:06;3.40;;;1.67;;
51286;SDS011;37364;46.974;18.916;2023-10-09T05:10:22;1.75;;;1.60;;
51286;SDS011;37364;46.974;18.916;2023-10-09T05:12:53;1.38;;;1.27;;
51286;SDS011;37364;46.974;18.916;2023-10-09T05:15:31;2.67;;;1.40;;
51286;SDS011;37364;46.974;18.916;2023-10-09T05:18:02;2.80;;;1.48;;
51286;SDS011;37364;46.974;18.916;2023-10-09T05:20:39;3.33;;;1.48;;
51286;SDS011;37364;46.974;18.916;2023-10-09T05:23:21;1.52;;;1.42;;
51286;SDS011;37364;46.974;18.916;2023-10-09T05:25:56;2.60;;;1.30;;
51286;SDS011;37364;46.974;18.916;2023-10-09T05:28:26;1.67;;;1.13;;
51286;SDS011;37364;46.974;18.916;2023-10-09T05:31:16;6.88;;;1.60;;
51286;SDS011;37364;46.974;18.916;2023-10-09T05:33:58;4.03;;;1.50;;
51286;SDS011;37364;46.974;18.916;2023-10-09T05:36:31;2.80;;;1.67;;
51286;SDS011;37364;46.974;18.916;2023-10-09T05:39:02;2.80;;;1.48;;
51286;SDS011;37364;46.974;18.916;2023-10-09T05:41:45;1.65;;;1.52;;
51286;SDS011;37364;46.974;18.916;2023-10-09T05:44:19;2.80;;;1.35;;
51286;SDS011;37364;46.974;18.916;2023-10-09T05:47:02;1.48;;;1.27;;
51286;SDS011;37364;46.974;18.916;2023-10-09T05:52:24;1.10;;;1.02;;
51286;SDS011;37364;46.974;18.916;2023-10-09T05:54:59;2.38;;;1.25;;
51286;SDS011;37364;46.974;18.916;2023-10-09T05:57:42;1.90;;;1.40;;
51286;SDS011;37364;46.974;18.916;2023-10-09T06:00:24;1.17;;;1.05;;
51286;SDS011;37364;46.974;18.916;2023-10-09T06:03:08;1.23;;;1.13;;
51286;SDS011;37364;46.974;18.916;2023-10-09T06:06:05;1.20;;;1.13;;
51286;SDS011;37364;46.974;18.916;2023-10-09T06:08:44;1.35;;;1.25;;
51286;SDS011;37364;46.974;18.916;2023-10-09T06:11:30;1.25;;;1.05;;
51286;SDS011;37364;46.974;18.916;2023-10-09T06:14:17;1.10;;;1.02;;
51286;SDS011;37364;46.974;18.916;2023-10-09T06:16:52;1.20;;;1.10;;
51286;SDS011;37364;46.974;18.916;2023-10-09T06:19:38;1.20;;;1.02;;
51286;SDS011;37364;46.974;18.916;2023-10-09T06:22:10;2.38;;;1.38;;
51286;SDS011;37364;46.974;18.916;2023-10-09T06:25:20;2.33;;;1.48;;
51286;SDS011;37364;46.974;18.916;2023-10-09T06:27:59;2.10;;;1.80;;
51286;SDS011;37364;46.974;18.916;2023-10-09T06:30:30;2.38;;;1.33;;
51286;SDS011;37364;46.974;18.916;2023-10-09T06:33:03;1.30;;;1.10;;
51286;SDS011;37364;46.974;18.916;2023-10-09T06:35:47;1.33;;;0.90;;
51286;SDS011;37364;46.974;18.916;2023-10-09T06:38:23;1.70;;;1.15;;
51286;SDS011;37364;46.974;18.916;2023-10-09T06:41:03;0.80;;;0.80;;
51286;SDS011;37364;46.974;18.916;2023-10-09T06:43:46;2.60;;;1.27;;
51286;SDS011;37364;46.974;18.916;2023-10-09T06:46:20;2.13;;;1.70;;
51286;SDS011;37364;46.974;18.916;2023-10-09T06:49:10;3.05;;;1.50;;
51286;SDS011;37364;46.974;18.916;2023-10-09T06:51:59;1.60;;;1.30;;
51286;SDS011;37364;46.974;18.916;2023-10-09T06:54:43;1.40;;;1.30;;
51286;SDS011;37364;46.974;18.916;2023-10-09T06:57:20;0.95;;;0.95;;
51286;SDS011;37364;46.974;18.916;2023-10-09T07:00:12;2.55;;;1.02;;
51286;SDS011;37364;46.974;18.916;2023-10-09T07:02:55;8.75;;;3.47;;
51286;SDS011;37364;46.974;18.916;2023-10-09T07:05:39;8.00;;;2.00;;
51286;SDS011;37364;46.974;18.916;2023-10-09T07:08:28;2.22;;;2.00;;
51286;SDS011;37364;46.974;18.916;2023-10-09T07:11:00;2.65;;;1.20;;
51286;SDS011;37364;46.974;18.916;2023-10-09T07:13:51;2.22;;;1.15;;
51286;SDS011;37364;46.974;18.916;2023-10-09T07:16:25;1.88;;;1.25;;
51286;SDS011;37364;46.974;18.916;2023-10-09T07:19:08;1.00;;;0.90;;
51286;SDS011;37364;46.974;18.916;2023-10-09T07:22:01;0.80;;;0.77;;
51286;SDS011;37364;46.974;18.916;2023-10-09T07:24:43;1.65;;;1.15;;
51286;SDS011;37364;46.974;18.916;2023-10-09T07:30:10;3.30;;;1.00;;
51286;SDS011;37364;46.974;18.916;2023-10-09T07:32:54;0.85;;;0.85;;
51286;SDS011;37364;46.974;18.916;2023-10-09T07:35:32;1.40;;;1.30;;
51286;SDS011;37364;46.974;18.916;2023-10-09T07:38:17;1.65;;;1.00;;
51286;SDS011;37364;46.974;18.916;2023-10-09T07:40:50;3.17;;;1.33;;
51286;SDS011;37364;46.974;18.916;2023-10-09T07:43:35;1.80;;;1.27;;
51286;SDS011;37364;46.974;18.916;2023-10-09T07:46:15;2.78;;;1.52;;
51286;SDS011;37364;46.974;18.916;2023-10-09T07:49:00;1.88;;;1.10;;
51286;SDS011;37364;46.974;18.916;2023-10-09T07:51:39;2.63;;;1.98;;
51286;SDS011;37364;46.974;18.916;2023-10-09T07:54:13;4.10;;;2.40;;
51286;SDS011;37364;46.974;18.916;2023-10-09T07:56:59;5.20;;;1.50;;
51286;SDS011;37364;46.974;18.916;2023-10-09T07:59:35;4.53;;;1.08;;
51286;SDS011;37364;46.974;18.916;2023-10-09T08:02:23;1.48;;;1.08;;
51286;SDS011;37364;46.974;18.916;2023-10-09T08:04:59;4.15;;;1.83;;
51286;SDS011;37364;46.974;18.916;2023-10-09T08:07:45;1.35;;;1.00;;
51286;SDS011;37364;46.974;18.916;2023-10-09T08:10:45;6.18;;;1.02;;
51286;SDS011;37364;46.974;18.916;2023-10-09T08:13:27;0.95;;;0.85;;
51286;SDS011;37364;46.974;18.916;2023-10-09T08:16:10;1.33;;;0.73;;
51286;SDS011;37364;46.974;18.916;2023-10-09T08:18:50;1.10;;;1.02;;
51286;SDS011;37364;46.974;18.916;2023-10-09T08:21:18;1.00;;;0.95;;
51286;SDS011;37364;46.974;18.916;2023-10-09T08:24:08;1.63;;;1.13;;
51286;SDS011;37364;46.974;18.916;2023-10-09T08:27:02;1.85;;;1.10;;
51286;SDS011;37364;46.974;18.916;2023-10-09T08:29:50;0.73;;;0.73;;
51286;SDS011;37364;46.974;18.916;2023-10-09T08:32:39;2.95;;;1.00;;
51286;SDS011;37364;46.974;18.916;2023-10-09T08:35:14;1.48;;;0.95;;
51286;SDS011;37364;46.974;18.916;2023-10-09T08:37:56;2.05;;;0.85;;
51286;SDS011;37364;46.974;18.916;2023-10-09T08:43:07;0.80;;;0.80;;
51286;SDS011;37364;46.974;18.916;2023-10-09T08:45:39;1.10;;;0.73;;
51286;SDS011;37364;46.974;18.916;2023-10-09T08:48:14;1.58;;;1.10;;
51286;SDS011;37364;46.974;18.916;2023-10-09T08:50:47;3.30;;;1.00;;
51286;SDS011;37364;46.974;18.916;2023-10-09T08:53:21;6.78;;;0.93;;
51286;SDS011;37364;46.974;18.916;2023-10-09T08:55:54;6.15;;;1.55;;
51286;SDS011;37364;46.974;18.916;2023-10-09T08:58:25;1.25;;;0.90;;
51286;SDS011;37364;46.974;18.916;2023-10-09T09:00:59;1.73;;;1.10;;
51286;SDS011;37364;46.974;18.916;2023-10-09T09:03:37;1.52;;;1.05;;
51286;SDS011;37364;46.974;18.916;2023-10-09T09:06:13;2.85;;;1.35;;
51286;SDS011;37364;46.974;18.916;2023-10-09T09:08:44;5.55;;;1.40;;
51286;SDS011;37364;46.974;18.916;2023-10-09T09:11:15;5.68;;;1.13;;
51286;SDS011;37364;46.974;18.916;2023-10-09T09:14:00;3.13;;;1.08;;
51286;SDS011;37364;46.974;18.916;2023-10-09T09:16:33;1.43;;;1.33;;
51286;SDS011;37364;46.974;18.916;2023-10-09T09:19:05;1.02;;;0.98;;
51286;SDS011;37364;46.974;18.916;2023-10-09T09:21:52;2.65;;;1.20;;
51286;SDS011;37364;46.974;18.916;2023-10-09T09:24:41;10.60;;;3.20;;
51286;SDS011;37364;46.974;18.916;2023-10-09T09:30:25;1.70;;;1.10;;
51286;SDS011;37364;46.974;18.916;2023-10-09T09:33:04;3.40;;;1.08;;
51286;SDS011;37364;46.974;18.916;2023-10-09T09:35:57;1.23;;;0.90;;
51286;SDS011;37364;46.974;18.916;2023-10-09T09:38:32;4.63;;;1.48;;
51286;SDS011;37364;46.974;18.916;2023-10-09T09:41:15;1.85;;;1.20;;
51286;SDS011;37364;46.974;18.916;2023-10-09T09:43:52;1.40;;;1.23;;
51286;SDS011;37364;46.974;18.916;2023-10-09T09:46:27;3.42;;;1.52;;
51286;SDS011;37364;46.974;18.916;2023-10-09T09:49:04;6.88;;;1.60;;
51286;SDS011;37364;46.974;18.916;2023-10-09T09:51:44;1.55;;;1.30;;
51286;SDS011;37364;46.974;18.916;2023-10-09T09:54:17;3.05;;;1.23;;
51286;SDS011;37364;46.974;18.916;2023-10-09T09:56:53;4.88;;;1.98;;
51286;SDS011;37364;46.974;18.916;2023-10-09T09:59:27;0.90;;;0.85;;
51286;SDS011;37364;46.974;18.916;2023-10-09T10:02:02;2.33;;;1.20;;
51286;SDS011;37364;46.974;18.916;2023-10-09T10:04:38;2.10;;;1.50;;
51286;SDS011;37364;46.974;18.916;2023-10-09T10:07:17;1.92;;;1.23;;
51286;SDS011;37364;46.974;18.916;2023-10-09T10:09:54;2.58;;;1.40;;
51286;SDS011;37364;46.974;18.916;2023-10-09T10:18:53;2.03;;;1.50;;
51286;SDS011;37364;46.974;18.916;2023-10-09T10:21:34;2.00;;;1.15;;
51286;SDS011;37364;46.974;18.916;2023-10-09T10:27:24;3.53;;;1.10;;
51286;SDS011;37364;46.974;18.916;2023-10-09T10:33:03;4.53;;;1.10;;
51286;SDS011;37364;46.974;18.916;2023-10-09T10:35:43;2.83;;;1.30;;
51286;SDS011;37364;46.974;18.916;2023-10-09T10:38:26;3.15;;;1.48;;
51286;SDS011;37364;46.974;18.916;2023-10-09T10:41:10;2.20;;;1.20;;
51286;SDS011;37364;46.974;18.916;2023-10-09T10:43:51;2.03;;;1.42;;
51286;SDS011;37364;46.974;18.916;2023-10-09T10:46:28;2.53;;;1.35;;
51286;SDS011;37364;46.974;18.916;2023-10-09T10:49:05;4.75;;;1.83;;
51286;SDS011;37364;46.974;18.916;2023-10-09T10:51:47;1.25;;;1.13;;
51286;SDS011;37364;46.974;18.916;2023-10-09T10:54:28;1.17;;;1.00;;
51286;SDS011;37364;46.974;18.916;2023-10-09T10:57:14;1.58;;;1.33;;
51286;SDS011;37364;46.974;18.916;2023-10-09T10:59:58;3.80;;;1.60;;
51286;SDS011;37364;46.974;18.916;2023-10-09T11:03:02;4.93;;;1.13;;
51286;SDS011;37364;46.974;18.916;2023-10-09T11:05:43;1.42;;;0.98;;
51286;SDS011;37364;46.974;18.916;2023-10-09T11:08:18;2.10;;;1.08;;
51286;SDS011;37364;46.974;18.916;2023-10-09T11:11:11;1.40;;;1.30;;
51286;SDS011;37364;46.974;18.916;2023-10-09T11:13:49;2.00;;;1.27;;
51286;SDS011;37364;46.974;18.916;2023-10-09T11:16:26;2.10;;;1.70;;
51286;SDS011;37364;46.974;18.916;2023-10-09T11:19:10;6.35;;;1.88;;
51286;SDS011;37364;46.974;18.916;2023-10-09T11:21:59;3.45;;;1.75;;
51286;SDS011;37364;46.974;18.916;2023-10-09T11:27:13;2.00;;;1.48;;
51286;SDS011;37364;46.974;18.916;2023-10-09T11:29:51;1.98;;;1.00;;
51286;SDS011;37364;46.974;18.916;2023-10-09T11:32:35;2.40;;;1.55;;
51286;SDS011;37364;46.974;18.916;2023-10-09T11:35:11;1.42;;;1.30;;
51286;SDS011;37364;46.974;18.916;2023-10-09T11:37:54;1.80;;;1.60;;
51286;SDS011;37364;46.974;18.916;2023-10-09T11:40:29;4.95;;;1.85;;
51286;SDS011;37364;46.974;18.916;2023-10-09T11:43:17;2.00;;;1.00;;
51286;SDS011;37364;46.974;18.916;2023-10-09T11:45:44;1.55;;;1.30;;
51286;SDS011;37364;46.974;18.916;2023-10-09T11:48:27;2.92;;;1.40;;
51286;SDS011;37364;46.974;18.916;2023-10-09T11:51:00;1.48;;;1.20;;
51286;SDS011;37364;46.974;18.916;2023-10-09T11:53:43;4.03;;;1.98;;
51286;SDS011;37364;46.974;18.916;2023-10-09T11:56:18;4.05;;;1.35;;
51286;SDS011;37364;46.974;18.916;2023-10-09T11:58:54;3.45;;;1.75;;
51286;SDS011;37364;46.974;18.916;2023-10-09T12:01:25;2.42;;;1.58;;
51286;SDS011;37364;46.974;18.916;2023-10-09T12:04:05;2.53;;;1.40;;
51286;SDS011;37364;46.974;18.916;2023-10-09T12:06:36;2.17;;;1.40;;
51286;SDS011;37364;46.974;18.916;2023-10-09T12:09:09;1.27;;;1.17;;
51286;SDS011;37364;46.974;18.916;2023-10-09T12:11:50;7.32;;;1.70;;
51286;SDS011;37364;46.974;18.916;2023-10-09T12:14:30;3.65;;;1.52;;
51286;SDS011;37364;46.974;18.916;2023-10-09T12:17:02;2.63;;;1.55;;
51286;SDS011;37364;46.974;18.916;2023-10-09T12:19:36;4.43;;;1.80;;
51286;SDS011;37364;46.974;18.916;2023-10-09T12:22:07;5.78;;;1.92;;
51286;SDS011;37364;46.974;18.916;2023-10-09T12:24:43;4.32;;;1.80;;
51286;SDS011;37364;46.974;18.916;2023-10-09T12:27:13;3.60;;;2.20;;
51286;SDS011;37364;46.974;18.916;2023-10-09T12:29:47;2.45;;;1.65;;
51286;SDS011;37364;46.974;18.916;2023-10-09T12:32:17;3.75;;;1.67;;
51286;SDS011;37364;46.974;18.916;2023-10-09T12:34:51;3.67;;;1.30;;
51286;SDS011;37364;46.974;18.916;2023-10-09T12:37:26;1.80;;;1.55;;
51286;SDS011;37364;46.974;18.916;2023-10-09T12:39:58;9.85;;;1.85;;
51286;SDS011;37364;46.974;18.916;2023-10-09T12:42:32;3.25;;;1.63;;
51286;SDS011;37364;46.974;18.916;2023-10-09T12:45:03;7.72;;;1.75;;
51286;SDS011;37364;46.974;18.916;2023-10-09T12:47:35;1.90;;;1.80;;
51286;SDS011;37364;46.974;18.916;2023-10-09T12:50:12;2.28;;;1.42;;
51286;SDS011;37364;46.974;18.916;2023-10-09T12:52:42;11.80;;;1.85;;
51286;SDS011;37364;46.974;18.916;2023-10-09T12:55:15;3.72;;;1.75;;
51286;SDS011;37364;46.974;18.916;2023-10-09T12:57:48;2.78;;;2.08;;
51286;SDS011;37364;46.974;18.916;2023-10-09T13:00:22;2.38;;;1.65;;
51286;SDS011;37364;46.974;18.916;2023-10-09T13:02:59;4.55;;;1.75;;
51286;SDS011;37364;46.974;18.916;2023-10-09T13:05:43;3.85;;;1.73;;
51286;SDS011;37364;46.974;18.916;2023-10-09T13:08:19;7.25;;;2.03;;
51286;SDS011;37364;46.974;18.916;2023-10-09T13:10:51;4.28;;;2.10;;
51286;SDS011;37364;46.974;18.916;2023-10-09T13:13:28;1.92;;;1.48;;
51286;SDS011;37364;46.974;18.916;2023-10-09T13:16:07;2.90;;;1.88;;
51286;SDS011;37364;46.974;18.916;2023-10-09T13:18:40;3.20;;;1.55;;
51286;SDS011;37364;46.974;18.916;2023-10-09T13:21:20;3.60;;;1.67;;
51286;SDS011;37364;46.974;18.916;2023-10-09T13:23:53;5.70;;;1.83;;
51286;SDS011;37364;46.974;18.916;2023-10-09T13:26:24;3.10;;;1.88;;
51286;SDS011;37364;46.974;18.916;2023-10-09T13:29:01;3.72;;;1.92;;
51286;SDS011;37364;46.974;18.916;2023-10-09T13:31:36;10.52;;;1.45;;
51286;SDS011;37364;46.974;18.916;2023-10-09T13:34:13;4.30;;;1.77;;
51286;SDS011;37364;46.974;18.916;2023-10-09T13:36:47;4.38;;;1.45;;
51286;SDS011;37364;46.974;18.916;2023-10-09T13:39:20;6.45;;;1.20;;
51286;SDS011;37364;46.974;18.916;2023-10-09T13:41:52;8.18;;;1.00;;
51286;SDS011;37364;46.974;18.916;2023-10-09T13:44:28;4.00;;;1.50;;
51286;SDS011;37364;46.974;18.916;2023-10-09T13:47:01;11.55;;;1.42;;
51286;SDS011;37364;46.974;18.916;2023-10-09T13:49:33;3.47;;;1.55;;
51286;SDS011;37364;46.974;18.916;2023-10-09T13:52:15;1.58;;;1.15;;
51286;SDS011;37364;46.974;18.916;2023-10-09T13:54:49;3.42;;;1.50;;
51286;SDS011;37364;46.974;18.916;2023-10-09T13:57:20;2.55;;;1.45;;
51286;SDS011;37364;46.974;18.916;2023-10-09T13:59:58;4.10;;;1.85;;
51286;SDS011;37364;46.974;18.916;2023-10-09T14:02:31;4.75;;;1.70;;
51286;SDS011;37364;46.974;18.916;2023-10-09T14:05:03;4.18;;;1.60;;
51286;SDS011;37364;46.974;18.916;2023-10-09T14:07:40;1.50;;;1.40;;
51286;SDS011;37364;46.974;18.916;2023-10-09T14:10:11;3.40;;;1.60;;
51286;SDS011;37364;46.974;18.916;2023-10-09T14:12:52;6.32;;;1.70;;
51286;SDS011;37364;46.974;18.916;2023-10-09T14:15:26;2.65;;;1.30;;
51286;SDS011;37364;46.974;18.916;2023-10-09T14:17:59;3.20;;;1.63;;
51286;SDS011;37364;46.974;18.916;2023-10-09T14:20:35;4.50;;;1.30;;
51286;SDS011;37364;46.974;18.916;2023-10-09T14:23:10;4.28;;;1.45;;
51286;SDS011;37364;46.974;18.916;2023-10-09T14:25:47;3.72;;;1.85;;
51286;SDS011;37364;46.974;18.916;2023-10-09T14:28:21;1.77;;;1.40;;
51286;SDS011;37364;46.974;18.916;2023-10-09T14:30:55;3.88;;;1.60;;
51286;SDS011;37364;46.974;18.916;2023-10-09T14:33:27;9.75;;;1.70;;
51286;SDS011;37364;46.974;18.916;2023-10-09T14:36:06;5.88;;;1.67;;
51286;SDS011;37364;46.974;18.916;2023-10-09T14:38:43;7.93;;;1.63;;
51286;SDS011;37364;46.974;18.916;2023-10-09T14:41:16;3.38;;;1.15;;
51286;SDS011;37364;46.974;18.916;2023-10-09T14:43:49;1.30;;;1.20;;
51286;SDS011;37364;46.974;18.916;2023-10-09T14:46:20;2.80;;;1.58;;
51286;SDS011;37364;46.974;18.916;2023-10-09T14:48:55;1.73;;;1.52;;
51286;SDS011;37364;46.974;18.916;2023-10-09T14:51:31;3.67;;;2.53;;
51286;SDS011;37364;46.974;18.916;2023-10-09T14:54:05;7.38;;;2.42;;
51286;SDS011;37364;46.974;18.916;2023-10-09T14:56:36;5.88;;;1.85;;
51286;SDS011;37364;46.974;18.916;2023-10-09T14:59:14;5.75;;;2.92;;
51286;SDS011;37364;46.974;18.916;2023-10-09T15:01:46;7.05;;;3.13;;
51286;SDS011;37364;46.974;18.916;2023-10-09T15:04:20;5.45;;;2.13;;
51286;SDS011;37364;46.974;18.916;2023-10-09T15:06:52;4.35;;;2.00;;
51286;SDS011;37364;46.974;18.916;2023-10-09T15:09:28;6.18;;;2.58;;
51286;SDS011;37364;46.974;18.916;2023-10-09T15:12:01;4.50;;;2.35;;
51286;SDS011;37364;46.974;18.916;2023-10-09T15:17:06;3.65;;;2.45;;
51286;SDS011;37364;46.974;18.916;2023-10-09T15:19:37;5.28;;;2.53;;
51286;SDS011;37364;46.974;18.916;2023-10-09T15:22:08;3.58;;;2.00;;
51286;SDS011;37364;46.974;18.916;2023-10-09T15:24:41;4.65;;;2.35;;
51286;SDS011;37364;46.974;18.916;2023-10-09T15:27:12;4.18;;;2.40;;
51286;SDS011;37364;46.974;18.916;2023-10-09T15:32:16;4.88;;;3.75;;
51286;SDS011;37364;46.974;18.916;2023-10-09T15:34:49;7.47;;;4.35;;
51286;SDS011;37364;46.974;18.916;2023-10-09T15:37:25;16.55;;;6.90;;
51286;SDS011;37364;46.974;18.916;2023-10-09T15:39:58;10.35;;;5.75;;
51286;SDS011;37364;46.974;18.916;2023-10-09T15:42:47;19.35;;;6.50;;
51286;SDS011;37364;46.974;18.916;2023-10-09T15:45:23;12.60;;;6.22;;
51286;SDS011;37364;46.974;18.916;2023-10-09T15:47:56;14.02;;;5.80;;
51286;SDS011;37364;46.974;18.916;2023-10-09T15:50:29;21.07;;;6.87;;
51286;SDS011;37364;46.974;18.916;2023-10-09T15:53:04;9.40;;;4.45;;
51286;SDS011;37364;46.974;18.916;2023-10-09T15:55:40;8.88;;;5.65;;
51286;SDS011;37364;46.974;18.916;2023-10-09T15:58:15;12.88;;;5.30;;
51286;SDS011;37364;46.974;18.916;2023-10-09T16:00:45;11.30;;;5.60;;
51286;SDS011;37364;46.974;18.916;2023-10-09T16:03:17;9.55;;;4.70;;
51286;SDS011;37364;46.974;18.916;2023-10-09T16:05:51;13.70;;;4.35;;
51286;SDS011;37364;46.974;18.916;2023-10-09T16:08:21;9.73;;;5.70;;
51286;SDS011;37364;46.974;18.916;2023-10-09T16:10:58;10.20;;;5.38;;